createdAt,value
2022-10-03T00:01:54.035Z,99317.69
2022-10-03T00:04:20.189Z,99314.00
2022-10-03T00:06:46.294Z,99317.16
2022-10-03T00:09:12.430Z,99321.25
2022-10-03T00:11:38.749Z,99323.75
2022-10-03T00:14:05.051Z,99316.25
2022-10-03T00:16:31.155Z,99321.41
2022-10-03T00:18:57.254Z,99319.44
2022-10-03T00:21:23.385Z,99326.19
2022-10-03T00:23:49.519Z,99327.16
2022-10-03T00:26:15.631Z,99329.78
2022-10-03T00:28:41.915Z,99333.97
2022-10-03T00:31:08.028Z,99336.69
2022-10-03T00:33:34.153Z,99340.00
2022-10-03T00:36:00.258Z,99341.84
2022-10-03T00:38:26.340Z,99348.22
2022-10-03T00:40:52.488Z,99341.41
2022-10-03T00:43:18.622Z,99352.72
2022-10-03T00:45:44.703Z,99346.97
2022-10-03T00:48:10.802Z,99351.69
2022-10-03T00:50:36.940Z,99351.25
2022-10-03T00:53:03.021Z,99361.72
2022-10-03T00:55:29.117Z,99354.78
2022-10-03T00:57:55.276Z,99354.03
2022-10-03T01:00:21.373Z,99363.31
2022-10-03T01:02:47.471Z,99357.50
2022-10-03T01:05:13.580Z,99363.81
2022-10-03T01:07:39.672Z,99368.41
2022-10-03T01:10:05.758Z,99365.59
2022-10-03T01:12:31.906Z,99369.63
2022-10-03T01:14:57.988Z,99378.41
2022-10-03T01:17:24.063Z,99370.44
2022-10-03T01:19:50.178Z,99375.63
2022-10-03T01:22:16.259Z,99380.63
2022-10-03T01:24:42.347Z,99380.75
2022-10-03T01:27:08.455Z,99377.28
2022-10-03T01:29:34.566Z,99377.28
2022-10-03T01:32:00.773Z,99377.97
2022-10-03T01:34:26.892Z,99382.75
2022-10-03T01:36:52.972Z,99370.31
2022-10-03T01:39:19.061Z,99378.97
2022-10-03T01:41:45.173Z,99379.47
2022-10-03T01:44:11.270Z,99383.28
2022-10-03T01:46:37.403Z,99387.59
2022-10-03T01:49:04.207Z,99385.63
2022-10-03T01:51:30.348Z,99383.50
2022-10-03T01:53:56.450Z,99379.03
2022-10-03T01:56:22.553Z,99382.81
2022-10-03T01:58:48.655Z,99382.41
2022-10-03T02:01:14.789Z,99381.75
2022-10-03T02:03:40.992Z,99388.69
2022-10-03T02:06:07.088Z,99385.34
2022-10-03T02:08:33.210Z,99384.38
2022-10-03T02:10:59.342Z,99393.31
2022-10-03T02:13:25.433Z,99391.50
2022-10-03T02:15:51.545Z,99395.13
2022-10-03T02:18:17.677Z,99401.97
2022-10-03T02:20:43.802Z,99408.25
2022-10-03T02:23:09.880Z,99403.78
2022-10-03T02:25:35.974Z,99403.91
2022-10-03T02:28:02.150Z,99407.56
2022-10-03T02:30:28.308Z,99400.31
2022-10-03T02:32:54.904Z,99404.47
2022-10-03T02:35:20.986Z,99411.88
2022-10-03T02:37:47.080Z,99411.56
2022-10-03T02:40:13.184Z,99420.66
2022-10-03T02:42:39.277Z,99420.28
2022-10-03T02:45:05.370Z,99423.88
2022-10-03T02:47:31.678Z,99416.34
2022-10-03T02:49:57.777Z,99426.13
2022-10-03T02:52:23.880Z,99423.75
2022-10-03T02:54:49.965Z,99430.88
2022-10-03T02:57:16.042Z,99430.75
2022-10-03T02:59:42.126Z,99426.56
2022-10-03T03:02:08.279Z,99428.09
2022-10-03T03:04:34.378Z,99433.09
2022-10-03T03:07:00.592Z,99431.25
2022-10-03T03:09:26.729Z,99436.34
2022-10-03T03:11:52.821Z,99438.00
2022-10-03T03:14:18.902Z,99432.41
2022-10-03T03:16:45.061Z,99437.00
2022-10-03T03:19:11.203Z,99434.81
2022-10-03T03:21:37.674Z,99437.59
2022-10-03T03:24:03.961Z,99438.88
2022-10-03T03:26:30.131Z,99432.66
2022-10-03T03:28:56.218Z,99435.84
2022-10-03T03:31:22.396Z,99439.75
2022-10-03T03:33:48.513Z,99437.25
2022-10-03T03:36:14.615Z,99435.31
2022-10-03T03:38:40.760Z,99436.53
2022-10-03T03:41:06.862Z,99436.09
2022-10-03T03:43:35.739Z,99443.09
2022-10-03T03:46:02.117Z,99441.03
2022-10-03T03:48:28.265Z,99443.69
2022-10-03T03:50:54.537Z,99440.34
2022-10-03T03:53:20.710Z,99436.56
2022-10-03T03:55:46.823Z,99440.91
2022-10-03T03:58:13.025Z,99431.31
2022-10-03T04:00:39.171Z,99436.31
2022-10-03T04:03:05.376Z,99436.59
2022-10-03T04:05:31.475Z,99435.59
2022-10-03T04:07:57.581Z,99438.00
2022-10-03T04:10:23.665Z,99444.41
2022-10-03T04:12:49.798Z,99445.25
2022-10-03T04:15:15.931Z,99443.00
2022-10-03T04:17:42.034Z,99450.34
2022-10-03T04:20:08.128Z,99448.38
2022-10-03T04:22:34.220Z,99450.78
2022-10-03T04:25:00.400Z,99457.03
2022-10-03T04:27:26.497Z,99456.34
2022-10-03T04:29:56.640Z,99461.38
2022-10-03T04:32:23.003Z,99455.91
2022-10-03T04:34:49.099Z,99455.22
2022-10-03T04:37:15.215Z,99456.75
2022-10-03T04:39:41.309Z,99452.13
2022-10-03T04:42:07.498Z,99466.78
2022-10-03T04:44:33.608Z,99464.25
2022-10-03T04:46:59.701Z,99464.25
2022-10-03T04:49:25.803Z,99462.47
2022-10-03T04:51:55.555Z,99453.66
2022-10-03T04:54:21.968Z,99457.16
2022-10-03T04:56:48.050Z,99469.84
2022-10-03T04:59:14.144Z,99463.16
2022-10-03T05:01:40.617Z,99454.78
2022-10-03T05:04:06.971Z,99455.09
2022-10-03T05:06:33.075Z,99459.38
2022-10-03T05:08:59.161Z,99454.78
2022-10-03T05:11:25.261Z,99460.63
2022-10-03T05:13:51.365Z,99464.50
2022-10-03T05:16:17.454Z,99455.19
2022-10-03T05:18:43.569Z,99463.44
2022-10-03T05:21:09.656Z,99457.56
2022-10-03T05:23:35.757Z,99471.63
2022-10-03T05:26:23.178Z,99471.47
2022-10-03T05:28:47.911Z,99466.88
2022-10-03T05:31:14.076Z,99464.22
2022-10-03T05:33:40.187Z,99482.50
2022-10-03T05:36:06.294Z,99477.59
2022-10-03T05:38:32.380Z,99478.13
2022-10-03T05:40:58.455Z,99483.72
2022-10-03T05:43:25.047Z,99487.59
2022-10-03T05:45:51.175Z,99477.16
2022-10-03T05:48:17.290Z,99483.28
2022-10-03T05:50:43.403Z,99482.03
2022-10-03T05:53:09.479Z,99485.50
2022-10-03T05:55:35.595Z,99488.16
2022-10-03T05:58:02.675Z,99477.25
2022-10-03T06:00:28.823Z,99481.56
2022-10-03T06:02:55.119Z,99481.72
2022-10-03T06:05:21.393Z,99490.50
2022-10-03T06:07:47.487Z,99485.63
2022-10-03T06:10:13.564Z,99490.94
2022-10-03T06:12:39.659Z,99495.94
2022-10-03T06:15:05.741Z,99495.69
2022-10-03T06:17:31.885Z,99500.22
2022-10-03T06:19:58.001Z,99509.59
2022-10-03T06:22:24.086Z,99515.09
2022-10-03T06:24:50.170Z,99515.41
2022-10-03T06:27:16.265Z,99514.44
2022-10-03T06:29:42.353Z,99515.09
2022-10-03T06:32:08.581Z,99513.75
2022-10-03T06:34:34.856Z,99520.13
2022-10-03T06:37:01.075Z,99523.88
2022-10-03T06:39:27.186Z,99519.41
2022-10-03T06:41:53.475Z,99520.53
2022-10-03T06:44:19.557Z,99533.94
2022-10-03T06:46:45.685Z,99525.84
2022-10-03T06:49:11.909Z,99518.84
2022-10-03T06:51:39.170Z,99518.56
2022-10-03T06:54:05.739Z,99531.22
2022-10-03T06:56:32.101Z,99525.03
2022-10-03T06:58:58.284Z,99524.03
2022-10-03T07:01:24.424Z,99527.81
2022-10-03T07:03:50.576Z,99525.59
2022-10-03T07:06:16.722Z,99521.63
2022-10-03T07:08:42.891Z,99526.19
2022-10-03T07:11:09.088Z,99534.25
2022-10-03T07:13:35.295Z,99534.38
2022-10-03T07:18:48.546Z,99533.34
2022-10-03T07:21:16.813Z,99540.84
2022-10-03T07:23:43.151Z,99535.78
2022-10-03T07:26:09.314Z,99532.03
2022-10-03T07:28:35.612Z,99545.72
2022-10-03T07:31:01.976Z,99546.03
2022-10-03T07:33:28.117Z,99542.94
2022-10-03T07:35:54.306Z,99551.03
2022-10-03T07:38:20.396Z,99560.81
2022-10-03T07:40:46.515Z,99558.34
2022-10-03T07:43:12.601Z,99556.25
2022-10-03T07:45:38.694Z,99576.22
2022-10-03T07:48:04.799Z,99567.56
2022-10-03T07:50:31.046Z,99569.63
2022-10-03T07:52:57.261Z,99567.97
2022-10-03T07:55:23.385Z,99578.03
2022-10-03T07:57:49.475Z,99574.28
2022-10-03T08:00:15.568Z,99579.59
2022-10-03T08:02:42.194Z,99572.00
2022-10-03T08:05:08.350Z,99571.44
2022-10-03T08:07:34.423Z,99580.94
2022-10-03T08:10:00.602Z,99576.63
2022-10-03T08:12:26.698Z,99573.97
2022-10-03T08:14:52.987Z,99580.66
2022-10-03T08:17:19.159Z,99586.19
2022-10-03T08:19:45.257Z,99577.06
2022-10-03T08:22:11.345Z,99578.44
2022-10-03T08:24:37.611Z,99589.16
2022-10-03T08:27:03.930Z,99580.94
2022-10-03T08:29:30.143Z,99589.53
2022-10-03T08:31:56.252Z,99590.56
2022-10-03T08:34:22.350Z,99583.66
2022-10-03T08:36:48.430Z,99585.84
2022-10-03T08:39:14.529Z,99587.34
2022-10-03T08:41:41.118Z,99592.53
2022-10-03T08:44:07.486Z,99598.94
2022-10-03T08:46:33.623Z,99602.56
2022-10-03T08:48:59.792Z,99605.28
2022-10-03T08:51:25.917Z,99608.31
2022-10-03T08:53:52.198Z,99597.22
2022-10-03T08:56:18.290Z,99597.28
2022-10-03T08:58:44.380Z,99595.63
2022-10-03T09:01:10.527Z,99596.97
2022-10-03T09:03:40.668Z,99597.91
2022-10-03T09:06:09.102Z,99600.69
2022-10-03T09:08:36.063Z,99604.53
2022-10-03T09:11:02.318Z,99606.84
2022-10-03T09:13:28.410Z,99605.44
2022-10-03T09:15:54.683Z,99609.16
2022-10-03T09:18:20.810Z,99605.88
2022-10-03T09:20:46.956Z,99600.97
2022-10-03T09:23:13.070Z,99598.16
2022-10-03T09:25:39.148Z,99593.34
2022-10-03T09:28:05.291Z,99600.34
2022-10-03T09:30:31.668Z,99594.66
2022-10-03T09:32:57.769Z,99603.00
2022-10-03T09:35:23.866Z,99606.34
2022-10-03T09:37:49.990Z,99598.53
2022-10-03T09:40:17.273Z,99613.19
2022-10-03T09:42:43.519Z,99611.00
2022-10-03T09:45:09.622Z,99609.16
2022-10-03T09:47:35.859Z,99603.00
2022-10-03T09:50:02.057Z,99600.81
2022-10-03T09:52:28.178Z,99601.50
2022-10-03T09:54:54.397Z,99602.19
2022-10-03T09:57:22.909Z,99584.38
2022-10-03T09:59:49.612Z,99594.03
2022-10-03T10:02:15.725Z,99595.53
2022-10-03T10:04:54.986Z,99592.72
2022-10-03T10:07:22.001Z,99589.22
2022-10-03T10:09:48.103Z,99591.56
2022-10-03T10:12:14.199Z,99594.56
2022-10-03T10:14:40.309Z,99597.72
2022-10-03T10:17:06.391Z,99589.38
2022-10-03T10:19:32.668Z,99597.22
2022-10-03T10:21:58.822Z,99595.56
2022-10-03T10:24:24.901Z,99594.56
2022-10-03T10:26:51.006Z,99593.22
2022-10-03T10:29:17.170Z,99583.06
2022-10-03T10:31:43.448Z,99584.91
2022-10-03T10:34:09.715Z,99583.25
2022-10-03T10:36:36.011Z,99592.91
2022-10-03T10:39:02.181Z,99585.78
2022-10-03T10:41:28.269Z,99590.56
2022-10-03T10:43:54.370Z,99586.75
2022-10-03T10:46:20.475Z,99588.91
2022-10-03T10:48:46.601Z,99584.25
2022-10-03T10:51:12.899Z,99590.59
2022-10-03T10:53:38.989Z,99578.56
2022-10-03T10:56:05.333Z,99584.75
2022-10-03T10:58:31.562Z,99586.91
2022-10-03T11:00:57.737Z,99579.41
2022-10-03T11:03:23.861Z,99580.56
2022-10-03T11:05:49.963Z,99571.88
2022-10-03T11:08:16.045Z,99570.19
2022-10-03T11:10:42.183Z,99572.19
2022-10-03T11:13:09.272Z,99575.34
2022-10-03T11:15:35.353Z,99573.88
2022-10-03T11:18:01.460Z,99576.41
2022-10-03T11:20:27.573Z,99569.03
2022-10-03T11:22:53.657Z,99577.50
2022-10-03T11:25:19.764Z,99575.16
2022-10-03T11:27:45.873Z,99567.47
2022-10-03T11:30:11.966Z,99570.13
2022-10-03T11:32:38.050Z,99571.16
2022-10-03T11:35:04.163Z,99579.50
2022-10-03T11:37:30.267Z,99567.19
2022-10-03T11:39:56.360Z,99566.28
2022-10-03T11:42:22.488Z,99560.63
2022-10-03T11:44:48.589Z,99558.13
2022-10-03T11:47:14.676Z,99562.59
2022-10-03T11:49:40.777Z,99554.53
2022-10-03T11:52:06.886Z,99559.34
2022-10-03T11:54:32.967Z,99549.78
2022-10-03T11:56:59.083Z,99553.94
2022-10-03T11:59:26.985Z,99555.56
2022-10-03T12:01:53.232Z,99553.50
2022-10-03T12:04:19.421Z,99554.88
2022-10-03T12:06:45.504Z,99555.03
2022-10-03T12:09:11.596Z,99551.44
2022-10-03T12:11:37.894Z,99552.91
2022-10-03T12:14:08.641Z,99549.53
2022-10-03T12:16:37.030Z,99556.31
2022-10-03T12:19:03.159Z,99550.75
2022-10-03T12:21:29.236Z,99554.19
2022-10-03T12:23:55.320Z,99546.72
2022-10-03T12:26:21.435Z,99545.44
2022-10-03T12:28:47.539Z,99544.50
2022-10-03T12:31:17.039Z,99542.19
2022-10-03T12:33:44.968Z,99546.53
2022-10-03T12:36:11.066Z,99543.84
2022-10-03T12:38:37.160Z,99539.13
2022-10-03T12:41:03.262Z,99554.84
2022-10-03T12:43:29.399Z,99545.81
2022-10-03T12:45:55.538Z,99537.63
2022-10-03T12:48:21.679Z,99532.94
2022-10-03T12:50:48.086Z,99542.31
2022-10-03T12:53:14.388Z,99530.78
2022-10-03T12:55:40.712Z,99526.22
2022-10-03T12:58:06.867Z,99531.16
2022-10-03T13:00:32.999Z,99541.63
2022-10-03T13:02:59.102Z,99527.34
2022-10-03T13:05:25.193Z,99530.41
2022-10-03T13:07:51.328Z,99536.94
2022-10-03T13:10:17.431Z,99542.00
2022-10-03T13:12:43.530Z,99526.00
2022-10-03T13:15:09.634Z,99543.81
2022-10-03T13:17:35.744Z,99542.53
2022-10-03T13:20:01.836Z,99531.31
2022-10-03T13:22:27.925Z,99529.94
2022-10-03T13:24:54.015Z,99541.41
2022-10-03T13:27:20.104Z,99546.78
2022-10-03T13:29:46.186Z,99545.63
2022-10-03T13:32:12.283Z,99535.13
2022-10-03T13:34:38.369Z,99543.31
2022-10-03T13:37:04.439Z,99540.53
2022-10-03T13:39:30.543Z,99524.91
2022-10-03T13:41:56.636Z,99548.59
2022-10-03T13:44:22.733Z,99536.00
2022-10-03T13:46:48.836Z,99533.44
2022-10-03T13:49:14.926Z,99522.94
2022-10-03T13:51:41.332Z,99532.94
2022-10-03T13:54:08.146Z,99524.94
2022-10-03T13:56:34.389Z,99520.50
2022-10-03T13:59:00.537Z,99526.56
2022-10-03T14:01:26.689Z,99527.69
2022-10-03T14:03:53.687Z,99523.41
2022-10-03T14:06:21.336Z,99528.75
2022-10-03T14:08:47.473Z,99523.31
2022-10-03T14:11:13.587Z,99527.69
2022-10-03T14:13:39.681Z,99519.66
2022-10-03T14:16:06.525Z,99511.97
2022-10-03T14:18:32.656Z,99519.78
2022-10-03T14:20:58.749Z,99522.50
2022-10-03T14:23:24.845Z,99519.97
2022-10-03T14:25:50.936Z,99511.03
2022-10-03T14:28:17.101Z,99514.53
2022-10-03T14:31:04.634Z,99507.00
2022-10-03T14:33:29.321Z,99509.38
2022-10-03T14:35:55.430Z,99508.44
2022-10-03T14:38:21.521Z,99500.88
2022-10-03T14:40:47.622Z,99513.00
2022-10-03T14:43:13.763Z,99504.44
2022-10-03T14:45:39.855Z,99504.16
2022-10-03T14:48:06.004Z,99499.63
2022-10-03T14:50:32.143Z,99510.53
2022-10-03T14:52:58.232Z,99506.03
2022-10-03T14:55:28.949Z,99498.31
2022-10-03T14:58:10.248Z,99492.53
2022-10-03T15:00:37.371Z,99490.31
2022-10-03T15:03:03.531Z,99495.09
2022-10-03T15:05:29.661Z,99495.66
2022-10-03T15:07:55.769Z,99489.38
2022-10-03T15:10:21.856Z,99495.47
2022-10-03T15:12:47.950Z,99496.00
2022-10-03T15:15:14.036Z,99486.78
2022-10-03T15:17:40.961Z,99482.81
2022-10-03T15:20:07.062Z,99488.78
2022-10-03T15:22:33.160Z,99478.41
2022-10-03T15:24:59.284Z,99474.09
2022-10-03T15:27:25.365Z,99477.69
2022-10-03T15:29:51.454Z,99473.94
2022-10-03T15:32:17.562Z,99466.69
2022-10-03T15:34:43.667Z,99471.41
2022-10-03T15:37:09.789Z,99476.13
2022-10-03T15:39:35.920Z,99470.34
2022-10-03T15:42:02.052Z,99463.91
2022-10-03T15:44:28.148Z,99460.63
2022-10-03T15:46:54.246Z,99451.34
2022-10-03T15:49:20.332Z,99446.16
2022-10-03T15:51:46.443Z,99450.88
2022-10-03T15:54:12.574Z,99452.88
2022-10-03T15:56:41.658Z,99438.38
2022-10-03T15:59:07.759Z,99437.94
2022-10-03T16:01:33.890Z,99439.41
2022-10-03T16:04:00.038Z,99441.16
2022-10-03T16:06:26.143Z,99425.81
2022-10-03T16:08:52.243Z,99436.41
2022-10-03T16:11:18.468Z,99430.31
2022-10-03T16:13:44.616Z,99427.72
2022-10-03T16:16:10.814Z,99430.22
2022-10-03T16:18:37.240Z,99429.84
2022-10-03T16:21:03.463Z,99430.50
2022-10-03T16:23:29.570Z,99425.78
2022-10-03T16:25:55.739Z,99429.31
2022-10-03T16:28:21.922Z,99420.34
2022-10-03T16:30:48.078Z,99420.56
2022-10-03T16:33:14.183Z,99425.41
2022-10-03T16:35:40.274Z,99425.25
2022-10-03T16:38:06.394Z,99418.09
2022-10-03T16:40:32.478Z,99415.41
2022-10-03T16:42:58.555Z,99421.31
2022-10-03T16:45:24.838Z,99424.66
2022-10-03T16:47:50.950Z,99428.91
2022-10-03T16:50:17.056Z,99434.41
2022-10-03T16:52:43.167Z,99426.84
2022-10-03T16:55:09.260Z,99426.19
2022-10-03T16:57:35.350Z,99427.06
2022-10-03T17:00:01.540Z,99425.78
2022-10-03T17:02:27.821Z,99430.34
2022-10-03T17:04:53.999Z,99435.22
2022-10-03T17:07:20.104Z,99434.09
2022-10-03T17:09:46.190Z,99432.25
2022-10-03T17:12:12.285Z,99432.47
2022-10-03T17:14:38.392Z,99428.50
2022-10-03T17:17:04.478Z,99429.19
2022-10-03T17:19:30.563Z,99430.22
2022-10-03T17:21:56.838Z,99418.84
2022-10-03T17:24:22.911Z,99418.88
2022-10-03T17:26:48.999Z,99418.25
2022-10-03T17:29:15.120Z,99423.72
2022-10-03T17:31:41.487Z,99418.13
2022-10-03T17:34:09.432Z,99411.25
2022-10-03T17:36:35.524Z,99422.09
2022-10-03T17:39:01.605Z,99420.94
2022-10-03T17:41:27.704Z,99420.66
2022-10-03T17:43:53.970Z,99412.31
2022-10-03T17:46:20.132Z,99409.63
2022-10-03T17:48:46.281Z,99407.31
2022-10-03T17:51:12.380Z,99404.66
2022-10-03T17:53:38.461Z,99407.63
2022-10-03T17:56:04.720Z,99403.31
2022-10-03T17:58:30.840Z,99413.97
2022-10-03T18:00:56.952Z,99411.13
2022-10-03T18:03:23.111Z,99400.59
2022-10-03T18:05:49.225Z,99400.59
2022-10-03T18:08:15.307Z,99403.41
2022-10-03T18:10:41.399Z,99401.22
2022-10-03T18:13:07.501Z,99400.88
2022-10-03T18:15:33.853Z,99400.69
2022-10-03T18:17:59.946Z,99396.81
2022-10-03T18:20:26.049Z,99397.31
2022-10-03T18:22:52.134Z,99392.50
2022-10-03T18:25:18.233Z,99388.84
2022-10-03T18:27:44.594Z,99388.31
2022-10-03T18:30:10.681Z,99396.44
2022-10-03T18:32:36.796Z,99385.25
2022-10-03T18:35:02.908Z,99387.56
2022-10-03T18:37:28.991Z,99386.41
2022-10-03T18:39:55.264Z,99381.91
2022-10-03T18:42:21.373Z,99382.38
2022-10-03T18:44:47.467Z,99380.06
2022-10-03T18:47:13.557Z,99381.22
2022-10-03T18:49:39.697Z,99385.09
2022-10-03T18:52:05.793Z,99380.94
2022-10-03T18:54:31.878Z,99382.50
2022-10-03T18:56:57.982Z,99373.25
2022-10-03T18:59:24.064Z,99370.28
2022-10-03T19:01:50.265Z,99372.31
2022-10-03T19:04:16.442Z,99370.03
2022-10-03T19:06:42.537Z,99365.50
2022-10-03T19:09:08.713Z,99356.69
2022-10-03T19:11:34.822Z,99361.19
2022-10-03T19:14:00.908Z,99353.31
2022-10-03T19:16:27.011Z,99361.41
2022-10-03T19:18:53.169Z,99362.44
2022-10-03T19:21:19.286Z,99358.16
2022-10-03T19:23:45.373Z,99363.84
2022-10-03T19:26:11.491Z,99367.66
2022-10-03T19:28:37.776Z,99372.13
2022-10-03T19:31:03.956Z,99376.38
2022-10-03T19:33:30.056Z,99376.31
2022-10-03T19:35:56.149Z,99383.97
2022-10-03T19:38:22.251Z,99383.50
2022-10-03T19:40:48.380Z,99380.41
2022-10-03T19:43:14.502Z,99381.22
2022-10-03T19:45:40.643Z,99384.56
2022-10-03T19:48:06.784Z,99391.78
2022-10-03T19:50:32.886Z,99385.19
2022-10-03T19:52:58.987Z,99388.97
2022-10-03T19:55:25.138Z,99399.88
2022-10-03T19:57:51.230Z,99383.69
2022-10-03T20:00:17.320Z,99374.88
2022-10-03T20:02:43.526Z,99386.75
2022-10-03T20:05:09.648Z,99385.84
2022-10-03T20:07:35.738Z,99381.50
2022-10-03T20:10:01.853Z,99369.69
2022-10-03T20:12:27.944Z,99385.47
2022-10-03T20:14:54.205Z,99371.75
2022-10-03T20:17:20.325Z,99381.06
2022-10-03T20:19:46.443Z,99374.44
2022-10-03T20:22:12.539Z,99369.06
2022-10-03T20:24:38.672Z,99370.97
2022-10-03T20:27:04.785Z,99370.22
2022-10-03T20:29:30.875Z,99366.91
2022-10-03T20:31:57.183Z,99364.91
2022-10-03T20:34:23.268Z,99376.22
2022-10-03T20:36:49.447Z,99377.59
2022-10-03T20:39:15.544Z,99381.81
2022-10-03T20:41:41.957Z,99384.97
2022-10-03T20:44:08.228Z,99393.41
2022-10-03T20:46:34.358Z,99386.34
2022-10-03T20:49:00.475Z,99382.25
2022-10-03T20:51:26.597Z,99383.59
2022-10-03T20:53:52.838Z,99389.06
2022-10-03T20:56:18.919Z,99389.06
2022-10-03T20:58:49.081Z,99384.19
2022-10-03T21:01:17.074Z,99374.47
2022-10-03T21:03:43.285Z,99378.13
2022-10-03T21:06:14.190Z,99363.56
2022-10-03T21:08:41.029Z,99370.00
2022-10-03T21:11:07.139Z,99358.88
2022-10-03T21:13:33.348Z,99359.84
2022-10-03T21:15:59.620Z,99363.13
2022-10-03T21:18:25.762Z,99357.19
2022-10-03T21:20:51.854Z,99365.53
2022-10-03T21:23:17.955Z,99357.28
2022-10-03T21:25:44.056Z,99356.03
2022-10-03T21:28:10.194Z,99355.91
2022-10-03T21:30:36.332Z,99353.09
2022-10-03T21:33:02.409Z,99354.94
2022-10-03T21:35:28.489Z,99355.47
2022-10-03T21:37:54.659Z,99359.53
2022-10-03T21:40:20.744Z,99352.75
2022-10-03T21:42:46.827Z,99348.03
2022-10-03T21:45:12.924Z,99337.69
2022-10-03T21:47:39.022Z,99335.59
2022-10-03T21:50:05.102Z,99326.81
2022-10-03T21:52:31.200Z,99333.97
2022-10-03T21:54:57.378Z,99330.84
2022-10-03T21:57:23.469Z,99344.22
2022-10-03T21:59:49.569Z,99335.28
2022-10-03T22:02:15.725Z,99320.69
2022-10-03T22:04:41.929Z,99326.03
2022-10-03T22:07:08.043Z,99323.41
2022-10-03T22:09:34.124Z,99325.06
2022-10-03T22:12:00.218Z,99319.28
2022-10-03T22:14:26.316Z,99320.03
2022-10-03T22:16:52.406Z,99323.72
2022-10-03T22:19:18.491Z,99328.44
2022-10-03T22:21:44.596Z,99331.53
2022-10-03T22:24:10.778Z,99332.38
2022-10-03T22:26:36.879Z,99331.13
2022-10-03T22:29:03.950Z,99328.06
2022-10-03T22:31:30.117Z,99337.69
2022-10-03T22:33:56.413Z,99340.47
2022-10-03T22:36:22.520Z,99329.88
2022-10-03T22:38:48.626Z,99330.56
2022-10-03T22:41:14.712Z,99319.31
2022-10-03T22:43:40.831Z,99319.75
2022-10-03T22:46:06.966Z,99318.19
2022-10-03T22:48:33.166Z,99314.56
2022-10-03T22:50:59.273Z,99312.47
2022-10-03T22:53:25.358Z,99302.63
2022-10-03T22:55:51.446Z,99292.88
2022-10-03T22:58:17.548Z,99298.09
2022-10-03T23:00:43.643Z,99292.16
2022-10-03T23:03:09.869Z,99284.78
2022-10-03T23:05:36.059Z,99294.97
2022-10-03T23:08:02.171Z,99298.19
2022-10-03T23:10:28.272Z,99293.44
2022-10-03T23:12:54.372Z,99290.78
2022-10-03T23:15:20.452Z,99295.13
2022-10-03T23:17:46.545Z,99286.88
2022-10-03T23:20:12.637Z,99285.91
2022-10-03T23:22:38.727Z,99283.50
2022-10-03T23:25:04.820Z,99283.09
2022-10-03T23:27:30.913Z,99269.19
2022-10-03T23:29:57.042Z,99273.94
2022-10-03T23:32:23.149Z,99277.72
2022-10-03T23:34:49.262Z,99284.25
2022-10-03T23:37:15.346Z,99288.31
2022-10-03T23:39:41.431Z,99287.44
2022-10-03T23:42:07.816Z,99284.13
2022-10-03T23:44:33.902Z,99286.50
2022-10-03T23:46:59.990Z,99285.25
2022-10-03T23:49:26.102Z,99280.38
2022-10-03T23:51:52.189Z,99276.34
2022-10-03T23:54:18.289Z,99265.59
2022-10-03T23:56:44.466Z,99265.06
2022-10-03T23:59:10.566Z,99271.47
